Portada
METAR-TAF:

METAR-TAF

Aeroports :

Nan, Tailàndia

latitud: 18-46N, longitud: 100-46E, altitud: 200 m

Observació

L'informe es va fer fa 21 minuts, a les 06:00 UTC
Vent 10 kt del Sud/Sud-Est, variant entre Est/Sud-Est i Sud
Temperatura 37°C
Humitat 33%
Pressió 1009 hPa
Visibilitat 10 km o més
sense núvols per sota de 1500 mi sense presència de cumulonimbus.

METAR: VTCN 080600Z 16010KT 120V190 CAVOK 37/18 Q1009 NOSIG

Hora: 13:21 (06:21 UTC)

Pronòstic

L'informe es va fer fa 1 hora i 21 minuts, a les 05:00 UTC
Pronòstic vàlid del 08 a les 06 UTC al 09 a les 06 UTC
Vent 5 kt del Sud
Visibilitat 10 km o més
Escasses núvols a una alçada de 2500 ft
Temporalment
l' 08 a les 08 UTC al 08 a les 12 UTC
Vent 15 kt del Sud amb ràfegues de 35 kt
Visibilitat: 4000 m
Escasses núvols a una alçada de 1800 ft, Cumulonimbus.
Cel ennuvolat a una alçada de 2000 ft
tempesta, pluja

TAF: VTCN 080500Z 0806/0906 18005KT 9999 FEW025 TEMPO 0808/0812 18015G35KT 4000 TSRA FEW018CB BKN020

Observacions i pronòstics meteorològics de més de 4000 aeroports (METAR i TAF).

Les estacions disponibles són els punts grocs i vermells al mapa.

Posi el ratolí al punt desitjat per veure el nom de l'estació.

Feu clic per veure les observacions i els pronòstics meteorològics.

Per canviar el mapa: feu clic els botons verds amb una creu de color negre per apropar; al botó verd amb un guió per allunyar la imatge; o en les fletxes verdes per a mapes adjacents.


METAR-TAF: